Timeline UpdatesTrip UpdatesNews PostsPvt PostsTravel TipsAdmin PostsConv PostsFollowed PostsChat RequestsBlog PostsPNR Posts

Disclaimer
Search
 
 
Thu Jul 31, 2014 19:03:05 ISTHomeTrainsΣChainsAtlasPNRForumGalleryNewsFAQTripsMembersLoginFeedback
No Recent News for this Train
Other Trains in the News **new
Latest...
.
Wed Feb 26, 2014 (11:14AM)
⇐ Return Journey: Train# 11077

11078/Jhelum Express

Feb 26 2014 (11:14AM)
Change Departure Station:
Change Arrival Station:
Post a Train Travel TipPost a Train Travel Tip **new
Post a Comment/Question/Picture/VideoPost a Comment/Question/Picture/Video
Inaugural Run
Sat Jan 01, 1977
Pantry/Catering
✓ Pantry Car Avbl
✓ Catering Avbl
Loco/Rake Reversals
DD/Daund Junction (7);
RSA - Rake Sharing
No RSA.
Rake/Coach Composition
Loco, LDS, UR, A1, A2, B1, B2, B3, B4,B5 S1, PC, S2, S3, S4, S5, S6, S7, S8, S9, S10, UR, UR, MLTY (JAT-DD);
Loco
JAT-LDH=>LDH WDM3A/ TWIN LDH WDM3A LDH-MMR=>BSL WAP-4/ GZB WAP-7 MMR-PUNE=>PUNE WDP4D
News    PNR    Forum    Time-Table    Availability    Fare Chart    Map    Arr/Dep History    Trips    Gallery    ΣChains    X/O    Timeline    
Travel Time: 28h 15m    36 halts    Distance: 1599 km    Avg Speed: 56 km/hr
Type: Mail/Express
Zone: CR/Central
Departs @ 10:20 (Avg 32m late)
Platform# 4
SMTWTFS
New Delhi/NDLS 
Arrives @ 14:35 +1 night (Avg 1h 38m late)
Platform# 3
SMTWTFS
Pune Junction/PUNE 

36 halts. 217 intermediate Stations between New Delhi and Pune Junction

Show ALL intermediate Stations  Show Old Time-Table

#CodeStation NameX/OArrivesAvgDepartsAvgHaltPFDay#KmSpeedElevZoneAddress
1JATJammu Tawi (3)  -21:45+3411-576.771337mNRJammu 180002, Jammu and Kashmir
2VJPJVijaypur Jammu (2)  22:03+4522:05+452m21-555.546353mNRdistt. samba, Jammu and Kashmir
3SMBXSamba (2)  22:20+4922:22+512m11-544.163365mNRDist. Samba, Jammu and Kashmir
4HRNRHira Nagar (2)X  22:36+5522:38+552m21-529.364380mNRHiranagar, Jammu and Kashmir
5KTHUKathua (2)  23:05+5923:07+592m21-500.442396mNRdistt. kathua, Jammu and Kashmir
6PTKCPathankot Cantt (3)  23:40+5923:45+595m11-477.357328mNRPathankot By Pass Ph:0186-2251594, Punjab
7MEXMukerian (3)  00:27+5000:29+502m12-437.553257mNRMukerian distt. hosiharpur, Punjab
8DZADasuya (2)  00:46+5000:48+502m12-422.466251mNRDasuya distt. hoshiarpur, Punjab
9JRCJalandhar Cantt. Junction (3)X  01:40+4801:45+485m32-364.854239mNRNear Rama Mandi, Punjab
10PGWPhagwara Junction (3)X  02:03+4502:05+452m12-348.548245mNRPhagwara, Punjab
11LDHLudhiana Junction (7)X02:50+3503:00+4610m52-312.845246mNRLudhiana 141001, Punjab
12KNNKhanna (3)X  03:57+4103:59+412m22-270.067269mNRNH 1, Punjab
13SIRSirhind Junction (3)XO  04:15+4004:27+3112m22-252.168271mNRSirhind, Punjab
14RPJRajpura Junction (3)X  04:49+3004:51+312m22-227.359272mNRNH-1, Punjab
15UBCAmbala City (3)X  05:12+2705:14+282m12-206.817273mNRNH-1, Haryana
16UMBAmbala Cantt. Junction (7)X  05:40+1805:50+1810m22-199.263278mNRAmbala 133001, Haryana
17SHDMShahbad Markanda (2)X  06:09+2706:11+292m12-179.358267mNRShahabad Markanda, Haryana
18KKDEKurukshetra Junction (3)  06:34+2706:36+282m22-157.170260mNRKurukshetra, Haryana
19TRRTaraori (2)X  06:54+3106:56+312m--2-136.152255mNRTaraori, Haryana
20KUNKarnal (3)X  07:10+2807:12+292m12-124.066253mNRKarnal, Haryana
21GRAGharaunda (2)  07:28+2807:30+282m--2-106.660244mNRGharaunda, Haryana
22PNPPanipat Junction (5)X  07:47+2707:49+282m22-89.678235mNRPanipat, Haryana
23SMKSamalkha (3)X08:02+2908:04+302m--2-72.661229mNRSamalkha, Haryana
24GNUGanaur  08:16+3408:18+352m--2-60.464222mNRGanaur, Haryana
25SNPSonipat (3)X  08:33+3608:35+362m12-44.557225mNRSonipat, Haryana
26NURNarela (2)X  08:53+3708:55+372m--2-27.442222mNRNarela, Delhi NCT
27SZMDelhi Sabzi Mandi (2)  09:28+3809:30+402m--2-4.18220mNRGulabi Bagh, Delhi NCT
28NDLS»New Delhi (16)»  10:00+3210:20+3220m420.055215mNRNew Delhi, Delhi NCT
29FDBFaridabad (4)X  10:51+4010:53+402m3228.263206mNRold Faridabad, Haryana
30MTJMathura Junction (10)  12:40+3612:45+375m12141.376179mNCRMathura, Uttar Pradesh
31RKMRaja Ki Mandi (4)X  13:24+5713:26+572m12191.010170mNCRAgra, Uttar Pradesh
32AGCAgra Cantt. (6)X  13:50+3513:55+395m12195.090174mNCRAgra, Uttar Pradesh
33DHODholpur Junction (3)X  14:30+1:0714:32+1:092m22247.670177mNCRDholpur, Rajasthan
34MRAMorena (3)  14:55+1:1014:57+1:152m12274.575176mNCRMorena, Madhya Pradesh
35GWLGwalior Junction (4)X  15:28+1:2915:33+1:335m12313.077214mNCRGwalior, Madhya Pradesh
36DBADabra (3)X  16:06+1:5116:08+1:532m22355.370204mNCRDabra(District-Gwalior), Madhya Pradesh
37DAADatia (2)  16:34+1:5916:36+1:592m12385.741264mNCRDatia, Madhya Pradesh
38JHSJhansi Junction (7)X  17:13+1:4817:23+1:5210m32410.767259mNCRJhansi, Uttar Pradesh
39BABBabina (3)  17:46+2:0017:48+2:012m22436.293285mNCRBabina, Uttar Pradesh
40LARLalitpur (3)X  18:30+2:1318:32+2:142m12501.046373mNCRLalitpur, Uttar Pradesh
41DUADhaura (3)  19:09+2:0519:11+2:052m--2529.453407mNCRDhaura Tanda, Madhya Pradesh
42BINABina Junction (4)X  19:50+2:0419:55+2:045m32563.986414mWCRJn Pt - KATNI/GUNA/ BPL/JHS, Madhya Pradesh
43BAQGanj Basoda (4)X  20:27+2:0920:29+2:102m22609.7124416mWCRVidisha, Madhya Pradesh
44BHSVidisha (3)  20:48+2:2320:50+2:252m22649.046432mWCRVidisha, Madhya Pradesh
45BPLBhopal Junction (6)X  22:00+2:0622:05+2:125m12702.538497mWCRBhopal, Madhya Pradesh
46HBJBhopal HabibGanj (5)X  22:15+2:1622:17+2:172m42708.870496mWCRHabibGanj, Madhya Pradesh
47HBDHoshangabad (2)XO  23:15+2:3123:17+2:342m22776.225308mWCRHoshangabad, Madhya Pradesh
48ETItarsi Junction (7)  00:01+2:2200:05+2:304m33794.284329mWCRItarsi 461111, Madhya Pradesh
49BPFBanapura (2)  00:29+2:3800:31+2:412m23827.782314mWCRBanapura, Madhya Pradesh
50HDHarda (3)  01:02+2:3901:04+2:392m23870.085289mWCRHarda, Madhya Pradesh
51CAERChhanera (2)O  01:48+2:3601:50+2:362m23932.330283mWCRChhanera, Madhya Pradesh
52KNWKhandwa Junction (5)O  03:20+1:5003:25+1:505m23977.778310mCRKhandwa, Madhya Pradesh
53BAUBurhanpur (2)  04:18+1:5304:20+1:542m131046.573269mCRBurhanpur, Madhya Pradesh
54BSLBhusaval Junction (8)X  05:05+1:5505:15+1:5710m531101.063208mCRBhusaval 425201, Maharashtra
55JLJalgaon Junction (4)X  05:38+2:0105:40+2:022m231125.2102213mCRJalgaon 425001, Maharashtra
56PCPachora Junction (4)X  06:08+2:0906:10+2:102m231172.896264mCRPachora 424201, Maharashtra
57CSNChalisgaon Junction (3)  06:38+2:1906:40+2:192m331217.790352mCRChalisgaon 424101, Maharashtra
58NGNNandgaon (3)  07:08+2:2507:10+2:252m231259.951476mCRNandgaon, Maharashtra
59MMRManmad Junction (6)07:40+2:2107:50+2:2710m331285.231580mCRManmad 423104, Maharashtra
60KPGKopargaon (2)X  09:13+1:5909:15+2:012m131327.562508mCRKopargaon 423601, Maharashtra
61BAPBelapur (2)X  09:58+1:5810:00+1:592m231372.165541mCRShrirampur, Maharashtra
62ANGAhmadnagar (2)X  11:02+2:0611:05+2:073m131439.146650mCRAhmednagar 414001, Maharashtra
63DDDaund Junction (7)X12:55+1:3913:10+1:5215m231523.374521mCRNew Daund Dist. Pune 413801, Maharashtra
64URIUruli (2)  13:48+1:4813:50+1:472m131570.138553mCRDist. Pune 412202, Maharashtra
65PUNE•Pune Junction (6)•  14:35+1:38-331598.9-556mCRPune 411001, Maharashtra
Scroll to Top
Scroll to Bottom